createdAt,value
2019-03-27T00:01:50.078Z,102621.85
2019-03-27T00:04:25.052Z,102625.55
2019-03-27T00:06:59.941Z,102622.87
2019-03-27T00:09:32.731Z,102621.73
2019-03-27T00:12:07.903Z,102621.58
2019-03-27T00:14:39.932Z,102621.88
2019-03-27T00:17:12.284Z,102620.75
2019-03-27T00:19:51.995Z,102623.48
2019-03-27T00:22:25.803Z,102620.33
2019-03-27T00:24:58.147Z,102622.87
2019-03-27T00:27:32.354Z,102624.52
2019-03-27T00:30:06.424Z,102630.53
2019-03-27T00:32:41.062Z,102628.48
2019-03-27T00:35:13.256Z,102627.38
2019-03-27T00:37:45.586Z,102627.42
2019-03-27T00:40:20.565Z,102624.05
2019-03-27T00:42:52.683Z,102615.84
2019-03-27T00:45:26.953Z,102615.25
2019-03-27T00:47:58.727Z,102615.11
2019-03-27T00:50:30.955Z,102615.77
2019-03-27T00:53:03.122Z,102623.17
2019-03-27T00:55:35.297Z,102620.20
2019-03-27T00:58:07.541Z,102621.95
2019-03-27T01:01:12.531Z,102625.02
2019-03-27T01:03:44.766Z,102616.50
2019-03-27T01:06:17.090Z,102620.39
2019-03-27T01:08:49.211Z,102625.45
2019-03-27T01:11:21.286Z,102625.94
2019-03-27T01:13:53.371Z,102619.63
2019-03-27T01:16:25.527Z,102620.34
2019-03-27T01:18:57.671Z,102625.20
2019-03-27T01:21:29.803Z,102619.86
2019-03-27T01:24:01.847Z,102624.14
2019-03-27T01:26:33.938Z,102626.78
2019-03-27T01:29:06.165Z,102617.96
2019-03-27T01:31:38.392Z,102631.05
2019-03-27T01:34:10.605Z,102633.82
2019-03-27T01:36:42.774Z,102634.41
2019-03-27T01:39:14.945Z,102626.42
2019-03-27T01:41:47.113Z,102623.20
2019-03-27T01:44:19.203Z,102621.50
2019-03-27T01:46:51.763Z,102623.37
2019-03-27T01:49:23.807Z,102619.23
2019-03-27T01:51:55.865Z,102616.70
2019-03-27T01:54:27.981Z,102615.44
2019-03-27T01:56:59.989Z,102622.51
2019-03-27T01:59:32.323Z,102621.05
2019-03-27T02:02:04.454Z,102616.87
2019-03-27T02:04:36.482Z,102615.77
2019-03-27T02:07:08.604Z,102621.51
2019-03-27T02:09:40.763Z,102613.78
2019-03-27T02:12:12.836Z,102620.23
2019-03-27T02:14:45.060Z,102618.08
2019-03-27T02:17:17.203Z,102611.16
2019-03-27T02:19:49.363Z,102606.45
2019-03-27T02:22:21.397Z,102610.03
2019-03-27T02:24:53.554Z,102606.23
2019-03-27T02:27:25.638Z,102605.77
2019-03-27T02:29:57.737Z,102608.81
2019-03-27T02:32:29.771Z,102606.05
2019-03-27T02:35:01.931Z,102610.32
2019-03-27T02:37:33.963Z,102609.21
2019-03-27T02:40:06.567Z,102609.30
2019-03-27T02:42:38.655Z,102613.43
2019-03-27T02:45:11.720Z,102613.27
2019-03-27T02:47:43.790Z,102607.22
2019-03-27T02:50:15.858Z,102608.54
2019-03-27T02:52:48.006Z,102617.52
2019-03-27T02:55:19.982Z,102609.78
2019-03-27T02:57:52.048Z,102608.22
2019-03-27T03:00:24.328Z,102610.22
2019-03-27T03:02:56.453Z,102610.73
2019-03-27T03:05:28.560Z,102615.88
2019-03-27T03:08:00.655Z,102616.75
2019-03-27T03:10:32.815Z,102613.42
2019-03-27T03:13:04.933Z,102610.55
2019-03-27T03:15:37.080Z,102612.87
2019-03-27T03:18:09.203Z,102612.11
2019-03-27T03:20:41.357Z,102611.87
2019-03-27T03:23:13.443Z,102617.14
2019-03-27T03:25:45.637Z,102618.31
2019-03-27T03:28:17.779Z,102617.62
2019-03-27T03:30:49.960Z,102620.25
2019-03-27T03:33:22.143Z,102619.11
2019-03-27T03:35:54.255Z,102616.59
2019-03-27T03:38:26.357Z,102629.42
2019-03-27T03:40:58.333Z,102626.39
2019-03-27T03:43:30.424Z,102627.45
2019-03-27T03:46:02.591Z,102628.88
2019-03-27T03:48:34.671Z,102625.11
2019-03-27T03:51:08.461Z,102626.00
2019-03-27T03:53:40.433Z,102627.63
2019-03-27T03:56:15.768Z,102627.78
2019-03-27T03:58:48.880Z,102634.14
2019-03-27T04:01:25.904Z,102632.75
2019-03-27T04:03:59.439Z,102641.27
2019-03-27T04:06:31.546Z,102639.87
2019-03-27T04:09:03.829Z,102644.52
2019-03-27T04:11:35.914Z,102650.72
2019-03-27T04:14:07.952Z,102654.41
2019-03-27T04:16:40.113Z,102652.37
2019-03-27T04:19:12.208Z,102644.53
2019-03-27T04:21:44.340Z,102646.67
2019-03-27T04:24:16.438Z,102650.59
2019-03-27T04:26:48.645Z,102642.00
2019-03-27T04:29:20.879Z,102655.31
2019-03-27T04:31:53.069Z,102651.13
2019-03-27T04:34:25.239Z,102652.28
2019-03-27T04:36:57.376Z,102652.16
2019-03-27T04:39:29.457Z,102658.33
2019-03-27T04:42:01.635Z,102659.65
2019-03-27T04:44:33.675Z,102654.61
2019-03-27T04:47:05.802Z,102665.78
2019-03-27T04:52:13.988Z,102674.97
2019-03-27T04:54:46.030Z,102667.44
2019-03-27T04:57:18.115Z,102667.63
2019-03-27T04:59:50.135Z,102669.42
2019-03-27T05:02:22.287Z,102666.42
2019-03-27T05:04:55.083Z,102666.48
2019-03-27T05:07:27.297Z,102668.13
2019-03-27T05:09:59.479Z,102663.28
2019-03-27T05:12:31.587Z,102667.80
2019-03-27T05:15:03.726Z,102672.88
2019-03-27T05:17:45.746Z,102672.45
2019-03-27T05:20:11.063Z,102682.31
2019-03-27T05:22:43.068Z,102672.88
2019-03-27T05:25:15.144Z,102681.11
2019-03-27T05:27:47.371Z,102681.23
2019-03-27T05:30:29.126Z,102683.87
2019-03-27T05:33:01.492Z,102682.55
2019-03-27T05:35:33.742Z,102687.75
2019-03-27T05:38:05.985Z,102692.03
2019-03-27T05:40:38.851Z,102697.04
2019-03-27T05:43:11.003Z,102710.89
2019-03-27T05:45:43.178Z,102714.16
2019-03-27T05:48:15.337Z,102713.14
2019-03-27T05:50:47.501Z,102723.96
2019-03-27T05:53:20.068Z,102728.67
2019-03-27T05:55:52.229Z,102723.51
2019-03-27T05:58:24.319Z,102728.52
2019-03-27T06:00:56.498Z,102723.12
2019-03-27T06:03:28.556Z,102722.00
2019-03-27T06:06:00.672Z,102731.16
2019-03-27T06:08:32.803Z,102728.39
2019-03-27T06:11:04.994Z,102722.16
2019-03-27T06:13:37.266Z,102725.02
2019-03-27T06:16:09.518Z,102732.91
2019-03-27T06:18:41.696Z,102736.45
2019-03-27T06:21:13.822Z,102738.63
2019-03-27T06:23:45.914Z,102741.42
2019-03-27T06:26:18.022Z,102741.45
2019-03-27T06:28:50.388Z,102747.44
2019-03-27T06:31:22.500Z,102751.41
2019-03-27T06:33:54.640Z,102748.45
2019-03-27T06:36:26.809Z,102750.11
2019-03-27T06:38:58.919Z,102749.92
2019-03-27T06:41:31.079Z,102751.63
2019-03-27T06:44:03.325Z,102751.48
2019-03-27T06:46:35.503Z,102751.86
2019-03-27T06:49:08.013Z,102760.77
2019-03-27T06:51:40.651Z,102760.05
2019-03-27T06:54:13.003Z,102756.69
2019-03-27T06:56:45.146Z,102762.02
2019-03-27T06:59:17.308Z,102758.51
2019-03-27T07:01:49.324Z,102758.03
2019-03-27T07:04:21.476Z,102757.72
2019-03-27T07:06:55.000Z,102755.09
2019-03-27T07:09:27.216Z,102754.63
2019-03-27T07:11:59.235Z,102756.50
2019-03-27T07:14:31.341Z,102759.97
2019-03-27T07:17:03.360Z,102758.50
2019-03-27T07:19:35.543Z,102762.72
2019-03-27T07:22:07.581Z,102759.80
2019-03-27T07:24:39.661Z,102760.29
2019-03-27T07:27:11.736Z,102757.36
2019-03-27T07:29:43.886Z,102758.23
2019-03-27T07:32:15.882Z,102754.85
2019-03-27T07:34:47.940Z,102756.45
2019-03-27T07:37:20.038Z,102758.08
2019-03-27T07:39:52.116Z,102754.73
2019-03-27T07:42:24.277Z,102760.95
2019-03-27T07:44:56.344Z,102761.67
2019-03-27T07:47:28.433Z,102769.34
2019-03-27T07:50:00.452Z,102773.06
2019-03-27T07:52:32.565Z,102776.99
2019-03-27T07:55:18.400Z,102769.48
2019-03-27T07:57:39.102Z,102774.35
2019-03-27T08:00:15.114Z,102767.73
2019-03-27T08:02:47.398Z,102770.74
2019-03-27T08:05:19.607Z,102785.56
2019-03-27T08:07:51.769Z,102784.27
2019-03-27T08:10:23.880Z,102781.62
2019-03-27T08:12:56.119Z,102780.92
2019-03-27T08:15:28.228Z,102779.67
2019-03-27T08:18:00.385Z,102785.55
2019-03-27T08:20:32.762Z,102787.82
2019-03-27T08:23:05.006Z,102792.87
2019-03-27T08:25:37.303Z,102789.16
2019-03-27T08:28:09.808Z,102790.78
2019-03-27T08:30:42.075Z,102788.39
2019-03-27T08:33:14.191Z,102787.48
2019-03-27T08:35:46.297Z,102796.15
2019-03-27T08:38:18.428Z,102793.39
2019-03-27T08:40:50.650Z,102786.84
2019-03-27T08:43:25.443Z,102795.06
2019-03-27T08:45:58.040Z,102798.27
2019-03-27T08:48:30.374Z,102800.88
2019-03-27T08:51:02.603Z,102807.91
2019-03-27T08:53:34.925Z,102803.03
2019-03-27T08:56:07.307Z,102801.47
2019-03-27T08:58:39.567Z,102803.50
2019-03-27T09:01:12.062Z,102805.70
2019-03-27T09:03:44.323Z,102815.19
2019-03-27T09:06:16.703Z,102811.66
2019-03-27T09:08:51.913Z,102806.63
2019-03-27T09:11:27.669Z,102803.25
2019-03-27T09:14:05.527Z,102792.65
2019-03-27T09:16:37.962Z,102793.44
2019-03-27T09:21:47.071Z,102792.48
2019-03-27T09:24:23.438Z,102796.17
2019-03-27T09:26:55.711Z,102792.45
2019-03-27T09:29:28.177Z,102794.52
2019-03-27T09:32:00.603Z,102800.52
2019-03-27T09:34:35.891Z,102810.10
2019-03-27T09:37:09.662Z,102809.59
2019-03-27T09:39:42.021Z,102812.87
2019-03-27T09:42:17.337Z,102816.77
2019-03-27T09:44:49.875Z,102809.55
2019-03-27T09:47:22.721Z,102814.73
2019-03-27T09:49:57.420Z,102818.78
2019-03-27T09:52:30.375Z,102816.27
2019-03-27T09:55:02.844Z,102815.38
2019-03-27T09:57:35.033Z,102809.49
2019-03-27T10:00:08.587Z,102806.73
2019-03-27T10:02:41.159Z,102808.54
2019-03-27T10:05:13.684Z,102807.84
2019-03-27T10:07:45.975Z,102810.48
2019-03-27T10:10:18.528Z,102805.94
2019-03-27T10:12:50.764Z,102810.20
2019-03-27T10:15:23.006Z,102813.47
2019-03-27T10:17:55.250Z,102818.88
2019-03-27T10:20:27.753Z,102820.79
2019-03-27T10:22:59.911Z,102814.67
2019-03-27T10:25:32.406Z,102816.09
2019-03-27T10:28:05.877Z,102811.17
2019-03-27T10:30:38.452Z,102813.12
2019-03-27T10:33:10.707Z,102812.77
2019-03-27T10:35:42.971Z,102820.33
2019-03-27T10:38:18.029Z,102826.72
2019-03-27T10:40:50.441Z,102821.48
2019-03-27T10:43:22.854Z,102821.36
2019-03-27T10:45:54.976Z,102820.52
2019-03-27T10:48:27.192Z,102820.55
2019-03-27T10:50:59.315Z,102823.85
2019-03-27T10:53:32.164Z,102812.10
2019-03-27T10:56:04.280Z,102817.02
2019-03-27T10:58:36.448Z,102823.23
2019-03-27T11:01:09.784Z,102826.02
2019-03-27T11:03:41.940Z,102814.54
2019-03-27T11:06:14.182Z,102812.55
2019-03-27T11:08:50.890Z,102819.59
2019-03-27T11:11:25.740Z,102815.73
2019-03-27T11:13:58.406Z,102821.59
2019-03-27T11:16:30.611Z,102811.01
2019-03-27T11:19:02.761Z,102822.52
2019-03-27T11:21:34.842Z,102824.76
2019-03-27T11:24:06.972Z,102819.41
2019-03-27T11:26:39.070Z,102816.95
2019-03-27T11:29:11.509Z,102817.70
2019-03-27T11:31:43.722Z,102810.45
2019-03-27T11:34:16.003Z,102818.44
2019-03-27T11:36:48.221Z,102811.15
2019-03-27T11:39:20.462Z,102810.23
2019-03-27T11:41:52.606Z,102807.31
2019-03-27T11:44:25.055Z,102806.86
2019-03-27T11:46:57.086Z,102809.06
2019-03-27T11:49:29.100Z,102804.32
2019-03-27T11:52:01.479Z,102797.48
2019-03-27T11:54:33.624Z,102797.97
2019-03-27T11:57:05.788Z,102796.45
2019-03-27T11:59:37.932Z,102799.59
2019-03-27T12:02:25.618Z,102804.47
2019-03-27T12:04:57.814Z,102798.05
2019-03-27T12:07:29.927Z,102797.84
2019-03-27T12:10:02.205Z,102792.55
2019-03-27T12:12:34.435Z,102795.63
2019-03-27T12:15:07.602Z,102796.03
2019-03-27T12:17:39.776Z,102795.29
2019-03-27T12:20:12.337Z,102793.61
2019-03-27T12:22:56.933Z,102796.52
2019-03-27T12:25:18.280Z,102784.59
2019-03-27T12:27:50.413Z,102782.02
2019-03-27T12:30:22.688Z,102781.94
2019-03-27T12:32:54.904Z,102779.08
2019-03-27T12:35:27.254Z,102779.98
2019-03-27T12:37:59.328Z,102784.02
2019-03-27T12:40:31.550Z,102777.61
2019-03-27T12:43:05.312Z,102772.80
2019-03-27T12:45:37.785Z,102771.49
2019-03-27T12:48:10.368Z,102771.94
2019-03-27T12:50:44.288Z,102777.08
2019-03-27T12:53:16.298Z,102772.74
2019-03-27T12:55:48.507Z,102774.75
2019-03-27T12:58:25.047Z,102776.73
2019-03-27T13:00:57.172Z,102778.27
2019-03-27T13:03:32.235Z,102782.39
2019-03-27T13:06:04.420Z,102771.91
2019-03-27T13:08:36.554Z,102769.80
2019-03-27T13:11:08.644Z,102775.00
2019-03-27T13:13:40.721Z,102781.05
2019-03-27T13:16:12.961Z,102766.57
2019-03-27T13:18:45.135Z,102774.02
2019-03-27T13:21:26.269Z,102772.71
2019-03-27T13:23:51.185Z,102768.88
2019-03-27T13:26:23.297Z,102771.46
2019-03-27T13:28:55.386Z,102770.09
2019-03-27T13:31:30.569Z,102771.97
2019-03-27T13:34:02.668Z,102772.67
2019-03-27T13:36:36.047Z,102777.48
2019-03-27T13:39:10.664Z,102774.86
2019-03-27T13:41:42.896Z,102775.22
2019-03-27T13:44:15.009Z,102767.87
2019-03-27T13:46:48.171Z,102762.28
2019-03-27T13:49:26.095Z,102767.52
2019-03-27T13:52:05.501Z,102766.05
2019-03-27T13:54:37.998Z,102768.77
2019-03-27T13:57:10.280Z,102765.55
2019-03-27T13:59:42.425Z,102765.47
2019-03-27T14:02:14.798Z,102760.31
2019-03-27T14:04:47.238Z,102768.03
2019-03-27T14:07:19.755Z,102773.28
2019-03-27T14:09:52.121Z,102769.27
2019-03-27T14:12:24.563Z,102768.75
2019-03-27T14:14:56.931Z,102762.61
2019-03-27T14:17:29.177Z,102765.87
2019-03-27T14:20:01.541Z,102758.05
2019-03-27T14:22:33.695Z,102766.81
2019-03-27T14:25:06.637Z,102761.87
2019-03-27T14:27:38.892Z,102763.95
2019-03-27T14:30:15.836Z,102759.55
2019-03-27T14:32:48.059Z,102764.55
2019-03-27T14:35:20.249Z,102766.03
2019-03-27T14:37:52.500Z,102768.84
2019-03-27T14:40:25.098Z,102769.83
2019-03-27T14:42:57.707Z,102761.34
2019-03-27T14:45:30.174Z,102760.44
2019-03-27T14:48:02.594Z,102760.89
2019-03-27T14:50:35.366Z,102765.05
2019-03-27T14:53:07.710Z,102767.81
2019-03-27T14:55:40.197Z,102762.30
2019-03-27T14:58:12.551Z,102760.79
2019-03-27T15:00:44.825Z,102754.08
2019-03-27T15:03:17.053Z,102753.09
2019-03-27T15:05:49.175Z,102757.95
2019-03-27T15:08:21.548Z,102755.58
2019-03-27T15:10:54.070Z,102758.47
2019-03-27T15:13:26.632Z,102760.05
2019-03-27T15:15:58.868Z,102763.84
2019-03-27T15:18:31.141Z,102763.34
2019-03-27T15:21:06.174Z,102769.62
2019-03-27T15:23:38.707Z,102766.40
2019-03-27T15:26:10.991Z,102763.81
2019-03-27T15:28:43.270Z,102766.59
2019-03-27T15:31:20.791Z,102763.79
2019-03-27T15:33:49.205Z,102759.67
2019-03-27T15:36:21.423Z,102757.31
2019-03-27T15:38:53.663Z,102759.30
2019-03-27T15:41:26.130Z,102761.63
2019-03-27T15:43:58.244Z,102759.26
2019-03-27T15:46:30.461Z,102762.28
2019-03-27T15:49:02.692Z,102759.16
2019-03-27T15:51:35.144Z,102755.82
2019-03-27T15:54:07.306Z,102753.43
2019-03-27T15:56:39.561Z,102753.58
2019-03-27T15:59:11.901Z,102759.00
2019-03-27T16:01:44.382Z,102753.20
2019-03-27T16:04:16.765Z,102753.91
2019-03-27T16:06:49.176Z,102750.44
2019-03-27T16:09:21.661Z,102749.06
2019-03-27T16:11:54.044Z,102749.73
2019-03-27T16:14:26.399Z,102755.79
2019-03-27T16:17:12.808Z,102751.00
2019-03-27T16:19:33.773Z,102746.77
2019-03-27T16:22:06.228Z,102745.70
2019-03-27T16:24:38.409Z,102744.89
2019-03-27T16:27:10.732Z,102749.29
2019-03-27T16:29:43.047Z,102744.51
2019-03-27T16:32:15.438Z,102751.20
2019-03-27T16:34:51.020Z,102746.42
2019-03-27T16:37:23.466Z,102745.20
2019-03-27T16:39:55.735Z,102754.11
2019-03-27T16:42:28.147Z,102749.31
2019-03-27T16:47:37.139Z,102753.61
2019-03-27T16:50:11.199Z,102758.17
2019-03-27T16:52:43.640Z,102760.22
2019-03-27T16:55:15.926Z,102763.47
2019-03-27T16:57:51.264Z,102756.67
2019-03-27T17:00:22.451Z,102760.42
2019-03-27T17:02:54.719Z,102763.48
2019-03-27T17:05:26.960Z,102762.53
2019-03-27T17:07:59.349Z,102753.83
2019-03-27T17:10:31.522Z,102758.47
2019-03-27T17:13:03.673Z,102751.36
2019-03-27T17:15:35.984Z,102761.72
2019-03-27T17:18:08.368Z,102760.39
2019-03-27T17:20:40.494Z,102759.64
2019-03-27T17:23:18.528Z,102765.02
2019-03-27T17:25:46.832Z,102759.08
2019-03-27T17:28:19.095Z,102761.50
2019-03-27T17:30:51.550Z,102760.28
2019-03-27T17:33:23.648Z,102765.25
2019-03-27T17:36:01.545Z,102771.44
2019-03-27T17:38:34.070Z,102765.86
2019-03-27T17:41:06.234Z,102767.19
2019-03-27T17:43:38.350Z,102767.79
2019-03-27T17:46:10.651Z,102767.88
2019-03-27T17:48:43.095Z,102781.23
2019-03-27T17:51:15.130Z,102780.49
2019-03-27T17:53:47.394Z,102782.05
2019-03-27T17:56:20.080Z,102778.89
2019-03-27T17:58:52.541Z,102776.40
2019-03-27T18:01:24.848Z,102782.60
2019-03-27T18:03:56.930Z,102779.53
2019-03-27T18:06:29.103Z,102781.70
2019-03-27T18:09:01.177Z,102785.02
2019-03-27T18:11:35.439Z,102789.44
2019-03-27T18:16:40.449Z,102789.26
2019-03-27T18:19:12.884Z,102792.75
2019-03-27T18:21:48.126Z,102789.73
2019-03-27T18:24:24.339Z,102797.20
2019-03-27T18:26:56.605Z,102796.53
2019-03-27T18:29:28.738Z,102797.55
2019-03-27T18:32:00.987Z,102797.44
2019-03-27T18:34:38.130Z,102804.81
2019-03-27T18:37:12.858Z,102803.63
2019-03-27T18:39:48.803Z,102804.55
2019-03-27T18:42:24.157Z,102811.22
2019-03-27T18:44:56.462Z,102810.50
2019-03-27T18:47:28.682Z,102803.44
2019-03-27T18:50:02.471Z,102817.99
2019-03-27T18:52:34.588Z,102813.38
2019-03-27T18:55:07.343Z,102818.73
2019-03-27T18:57:39.531Z,102815.08
2019-03-27T19:00:13.503Z,102816.34
2019-03-27T19:02:45.707Z,102821.81
2019-03-27T19:05:18.183Z,102824.41
2019-03-27T19:07:50.340Z,102826.31
2019-03-27T19:10:22.594Z,102824.08
2019-03-27T19:12:55.825Z,102828.69
2019-03-27T19:15:28.035Z,102830.59
2019-03-27T19:18:00.348Z,102830.99
2019-03-27T19:20:40.955Z,102831.16
2019-03-27T19:23:13.162Z,102831.05
2019-03-27T19:25:45.446Z,102832.60
2019-03-27T19:28:17.493Z,102834.19
2019-03-27T19:30:49.679Z,102836.48
2019-03-27T19:33:27.809Z,102834.80
2019-03-27T19:36:10.125Z,102830.80
2019-03-27T19:38:49.673Z,102832.64
2019-03-27T19:41:21.897Z,102835.42
2019-03-27T19:43:54.072Z,102838.02
2019-03-27T19:46:26.240Z,102837.95
2019-03-27T19:48:58.571Z,102832.94
2019-03-27T19:51:30.743Z,102837.16
2019-03-27T19:54:04.091Z,102836.07
2019-03-27T19:56:36.201Z,102833.55
2019-03-27T19:59:08.384Z,102836.65
2019-03-27T20:01:40.537Z,102838.67
2019-03-27T20:04:12.658Z,102832.69
2019-03-27T20:06:54.201Z,102839.56
2019-03-27T20:09:26.369Z,102836.32
2019-03-27T20:11:58.637Z,102838.23
2019-03-27T20:14:33.259Z,102846.73
2019-03-27T20:17:05.678Z,102843.34
2019-03-27T20:19:43.531Z,102848.16
2019-03-27T20:22:15.617Z,102846.89
2019-03-27T20:24:47.664Z,102850.17
2019-03-27T20:27:20.153Z,102844.48
2019-03-27T20:29:52.221Z,102846.63
2019-03-27T20:32:24.473Z,102847.09
2019-03-27T20:34:57.639Z,102852.23
2019-03-27T20:37:29.812Z,102849.05
2019-03-27T20:40:01.981Z,102852.73
2019-03-27T20:42:34.125Z,102851.99
2019-03-27T20:45:06.727Z,102857.32
2019-03-27T20:47:38.963Z,102859.33
2019-03-27T20:50:11.834Z,102855.48
2019-03-27T20:52:43.952Z,102859.38
2019-03-27T20:55:29.319Z,102861.83
2019-03-27T20:57:50.220Z,102861.25
2019-03-27T21:00:22.558Z,102859.73
2019-03-27T21:02:54.735Z,102858.91
2019-03-27T21:05:28.946Z,102853.75
2019-03-27T21:08:01.212Z,102859.73
2019-03-27T21:10:33.516Z,102853.81
2019-03-27T21:13:09.800Z,102855.28
2019-03-27T21:15:41.919Z,102851.66
2019-03-27T21:18:14.232Z,102850.31
2019-03-27T21:20:46.364Z,102852.38
2019-03-27T21:23:18.421Z,102856.38
2019-03-27T21:25:51.627Z,102856.67
2019-03-27T21:28:25.315Z,102864.26
2019-03-27T21:30:57.702Z,102860.77
2019-03-27T21:33:30.139Z,102865.23
2019-03-27T21:36:03.547Z,102865.13
2019-03-27T21:38:35.822Z,102866.51
2019-03-27T21:41:08.227Z,102870.16
2019-03-27T21:43:40.490Z,102864.78
2019-03-27T21:46:13.245Z,102866.87
2019-03-27T21:48:48.472Z,102865.59
2019-03-27T21:51:23.565Z,102866.05
2019-03-27T21:53:55.902Z,102868.88
2019-03-27T21:56:28.116Z,102860.73
2019-03-27T21:59:02.518Z,102865.73
2019-03-27T22:01:34.046Z,102872.20
2019-03-27T22:04:06.258Z,102866.77
2019-03-27T22:06:38.723Z,102865.94
2019-03-27T22:09:11.179Z,102865.90
2019-03-27T22:11:43.373Z,102871.58
2019-03-27T22:14:15.433Z,102877.17
2019-03-27T22:16:47.636Z,102880.66
2019-03-27T22:19:19.776Z,102877.27
2019-03-27T22:22:02.793Z,102881.27
2019-03-27T22:24:34.890Z,102878.49
2019-03-27T22:27:07.108Z,102879.78
2019-03-27T22:29:39.226Z,102887.05
2019-03-27T22:32:11.442Z,102890.64
2019-03-27T22:34:44.452Z,102890.13
2019-03-27T22:37:16.744Z,102892.79
2019-03-27T22:39:48.852Z,102891.05
2019-03-27T22:42:21.003Z,102888.00
2019-03-27T22:44:53.153Z,102885.41
2019-03-27T22:47:25.645Z,102892.27
2019-03-27T22:49:57.738Z,102885.86
2019-03-27T22:52:29.907Z,102884.54
2019-03-27T22:55:02.020Z,102885.98
2019-03-27T22:57:34.179Z,102893.58
2019-03-27T23:00:07.625Z,102890.94
2019-03-27T23:02:40.848Z,102887.19
2019-03-27T23:05:16.302Z,102886.87
2019-03-27T23:07:48.449Z,102885.45
2019-03-27T23:10:20.627Z,102888.45
2019-03-27T23:12:55.891Z,102890.41
2019-03-27T23:15:30.623Z,102890.76
2019-03-27T23:18:02.785Z,102889.97
2019-03-27T23:20:34.926Z,102888.41
2019-03-27T23:23:07.032Z,102886.78
2019-03-27T23:25:39.147Z,102888.41
2019-03-27T23:28:11.240Z,102894.64
2019-03-27T23:30:43.306Z,102893.20
2019-03-27T23:33:15.559Z,102903.30
2019-03-27T23:35:47.677Z,102896.86
2019-03-27T23:38:19.849Z,102893.94
2019-03-27T23:40:51.962Z,102891.72
2019-03-27T23:43:24.102Z,102899.42
2019-03-27T23:45:56.287Z,102893.23
2019-03-27T23:48:28.406Z,102891.33
2019-03-27T23:51:00.476Z,102895.97
2019-03-27T23:53:32.586Z,102887.27
2019-03-27T23:56:15.828Z,102891.05
2019-03-27T23:58:38.688Z,102889.73
